Marion, IN (46952)

6:43 AM EST on March 04, 2015 (GMT -0500)
Marion Municipal | Change Station
CLOSE
Current Station
Airport
Location: Marion,
Elevation: 856 ft
Nearby Weather Stations

Elev 856 ft 40.49 °N, 85.68 °W | Updated 28 minutes ago

Overcast
Overcast
31 °F
Feels Like 24 °F
N
8
Wind Variable Wind from West

Today
High -- | Low -- °F
--% Chance of Precip.
Yesterday
High -- | Low -- °F
Precip. -- in
7:12 AM 6:37 PM
Waxing Gibbous, 99% visible
Pressure 29.94 in
Visibility 7.0 miles
Clouds Mostly Cloudy 1100 ft
Overcast 2000 ft
Windchill 24 °F
Dew Point 29 °F
Humidity 92%
Rainfall 0.00 in
Snow Depth Not available.
UV 0 out of 12
Pollen .40 out of 12
Air Quality Not available.
Flu Activity Not available.
METAR KMZZ 041115Z AUTO 28007KT 7SM BKN011 OVC020 00/M02 A2994 RMK AO2 T10051016

More Conditions Fewer Conditions

Pressure 29.94 in
Visibility 7.0 miles
Clouds Mostly Cloudy 1100 ft
Overcast 2000 ft
Windchill 24 °F
Dew Point 29 °F
Humidity 92%
Rainfall 0.00 in
Snow Depth Not available.
UV 0 out of 12
Pollen .40 out of 12
Air Quality Not available.
Flu Activity Not available.
METAR KMZZ 041115Z AUTO 28007KT 7SM BKN011 OVC020 00/M02 A2994 RMK AO2 T10051016

More Conditions Fewer Conditions

10-Day Weather Forecast

Almanac

Astronomy

Mar. 04, 2015 Rise Set
Actual Time
Civil Twilight
Nautical Twilight
Astronomical Twilight
Moon
Length of Visible Light
Length of Day
Tomorrow will be .
, % of the Moon is Illuminated

Today's Extremes

State Highs State Lows

Community

WunderPhotos

Upload Photos

1,802,435 photos uploaded!

WunderBlogs® & News

Nearby

Air Quality

  Air Quality AQ Index Pollutant
Not available.

Snow Depth

Station Depth Elevation

Earthquake Activity

City Distance Mag. Time & Date
Minimum magnitude displayed is 2.5.

Coastal Water Temperatures

Place Temperature

Nearby Weather Stations